Time;durP1;ratioP1;P1;durP2;ratioP2;P2;SDS_P1;SDS_P2;PMS_P1;PMS_P2;Temp;Humidity;BMP_temperature;BMP_pressure;BME280_temperature;BME280_humidity;BME280_pressure;Samples;Min_cycle;Max_cycle;Signal;HPM_P1;HPM_P2
2022/09/16 00:01:21;;;;;;;;;15.50;15.50;;;;;17.46;100.00;98657.72;6310863;20;2818998;-59
2022/09/16 00:03:55;;;;;;;;;14.00;13.33;;;;;17.56;100.00;98658.41;6281983;20;3537727;-59
2022/09/16 00:06:28;;;;;;;;;17.00;16.00;;;;;17.57;100.00;98662.84;6275762;20;2492102;-59
2022/09/16 00:09:02;;;;;;;;;17.00;14.00;;;;;17.61;100.00;98664.19;6279591;20;3529447;-59
2022/09/16 00:11:33;;;;;;;;;13.33;13.33;;;;;17.52;100.00;98666.03;6309181;20;3500285;-59
2022/09/16 00:14:02;;;;;;;;;11.00;11.00;;;;;17.60;100.00;98669.81;6316689;20;2783788;-59
2022/09/16 00:16:30;;;;;;;;;12.00;10.00;;;;;17.51;100.00;98674.34;6284813;20;2789893;-59
2022/09/16 00:19:00;;;;;;;;;13.00;11.00;;;;;17.58;100.00;98683.53;6282015;20;2739886;-59
2022/09/16 00:21:30;;;;;;;;;10.00;10.00;;;;;17.68;100.00;98683.41;6311413;20;2793112;-59
2022/09/16 00:23:58;;;;;;;;;12.00;10.00;;;;;17.63;100.00;98686.59;6315105;20;2791995;-59
2022/09/16 00:26:28;;;;;;;;;8.60;8.60;;;;;17.50;100.00;98686.22;6307418;20;2756545;-60
2022/09/16 00:28:57;;;;;;;;;10.67;9.00;;;;;17.42;100.00;98688.88;6310333;20;3484683;-59
2022/09/16 00:31:24;;;;;;;;;8.50;8.50;;;;;17.44;100.00;98687.72;6317289;20;2754422;-59
2022/09/16 00:33:53;;;;;;;;;9.67;9.67;;;;;17.49;100.00;98687.22;6277637;20;2781668;-59
2022/09/16 00:36:21;;;;;;;;;8.33;7.33;;;;;17.26;100.00;98682.38;6308238;20;2750251;-59
2022/09/16 00:38:53;;;;;;;;;8.67;8.67;;;;;17.30;100.00;98683.75;6305726;20;2751510;-59
2022/09/16 00:41:32;;;;;;;;;9.00;9.00;;;;;17.30;100.00;98686.47;6311485;20;2754432;-59
2022/09/16 00:44:06;;;;;;;;;9.67;9.67;;;;;17.21;100.00;98692.84;6280662;20;2778449;-59
2022/09/16 00:46:43;;;;;;;;;7.00;7.00;;;;;17.13;100.00;98695.53;6336232;20;2744057;-59
2022/09/16 00:49:28;;;;;;;;;10.00;9.00;;;;;17.06;100.00;98700.75;6278642;20;2761744;-59
2022/09/16 00:52:02;;;;;;;;;10.50;10.50;;;;;17.11;100.00;98705.69;6315355;20;2796210;-59
2022/09/16 00:54:32;;;;;;;;;10.00;9.00;;;;;17.19;100.00;98705.72;6286330;20;2761839;-60
2022/09/16 00:57:03;;;;;;;;;12.67;11.67;;;;;16.97;100.00;98707.13;6276675;20;2795032;-59
2022/09/16 00:59:42;;;;;;;;;12.00;12.00;;;;;16.98;100.00;98718.81;6334098;20;2803432;-59
2022/09/16 01:02:16;;;;;;;;;9.00;9.00;;;;;17.06;100.00;98722.44;6279122;20;2752332;-59
2022/09/16 01:05:17;;;;;;;;;10.00;10.00;;;;;17.15;100.00;98720.63;6281827;20;2786801;-64
2022/09/16 01:07:53;;;;;;;;;10.67;9.33;;;;;17.01;100.00;98724.78;6281006;20;2778469;-64
2022/09/16 01:10:25;;;;;;;;;9.00;9.00;;;;;17.11;100.00;98721.94;6312743;20;2748193;-65
2022/09/16 01:13:07;;;;;;;;;9.00;9.00;;;;;17.16;100.00;98727.75;6310840;20;2760753;-64
2022/09/16 01:15:58;;;;;;;;;10.00;10.00;;;;;17.19;100.00;98735.56;6307204;20;2777365;-65
2022/09/16 01:19:00;;;;;;;;;9.00;9.00;;;;;17.16;100.00;98727.75;6340633;20;2742996;-65
2022/09/16 01:22:28;;;;;;;;;8.00;8.00;;;;;17.00;100.00;98724.94;6311503;20;2754445;-65
2022/09/16 01:25:34;;;;;;;;;9.00;7.80;;;;;17.09;100.00;98732.13;6333510;20;2733652;-64
2022/09/16 01:28:20;;;;;;;;;8.67;8.67;;;;;17.09;100.00;98722.13;6310712;20;2750261;-65
2022/09/16 01:32:03;;;;;;;;;8.00;8.00;;;;;17.08;100.00;98720.41;6336101;20;2750258;-66
2022/09/16 01:35:15;;;;;;;;;12.67;10.33;;;;;16.94;100.00;98723.72;6308518;20;2788837;-65
2022/09/16 01:38:15;;;;;;;;;8.80;8.80;;;;;16.81;100.00;98732.25;6334398;20;2745167;-65
2022/09/16 01:41:04;;;;;;;;;7.60;7.60;;;;;16.82;100.00;98733.94;6302935;20;2736741;-66
2022/09/16 01:44:18;;;;;;;;;5.00;5.00;;;;;16.85;100.00;98730.06;6332122;20;2743052;-64
2022/09/16 01:47:03;;;;;;;;;6.40;6.40;;;;;16.76;100.00;98726.41;6332890;20;2741962;-65
2022/09/16 01:49:55;;;;;;;;;8.00;6.00;;;;;16.63;100.00;98717.84;6335930;20;2734626;-65
2022/09/16 01:53:07;;;;;;;;;7.60;5.80;;;;;16.57;100.00;98707.66;6336021;20;2739852;-65
2022/09/16 01:55:58;;;;;;;;;6.00;6.00;;;;;16.70;100.00;98710.81;6319148;20;2740094;-64
2022/09/16 01:58:48;;;;;;;;;6.50;6.50;;;;;16.61;100.00;98714.44;6289081;20;2745191;-64
2022/09/16 02:01:34;;;;;;;;;6.00;6.00;;;;;16.42;100.00;98735.28;6285300;20;2735736;-64
2022/09/16 02:04:45;;;;;;;;;8.20;6.40;;;;;16.35;100.00;98734.22;6315732;20;2735671;-64
2022/09/16 02:07:24;;;;;;;;;6.40;6.40;;;;;16.29;100.00;98740.22;6341198;20;2739905;-65
2022/09/16 02:10:00;;;;;;;;;8.00;7.00;;;;;16.27;100.00;98742.22;6316592;20;2748580;-64
2022/09/16 02:12:33;;;;;;;;;7.00;7.00;;;;;16.12;100.00;98746.50;6288317;20;2741940;-65
2022/09/16 02:15:10;;;;;;;;;5.80;5.80;;;;;16.26;100.00;98745.97;6311567;20;2746231;-65
2022/09/16 02:17:46;;;;;;;;;5.40;5.40;;;;;16.16;100.00;98745.16;6307131;20;2747174;-64
2022/09/16 02:20:26;;;;;;;;;6.60;6.60;;;;;16.04;100.00;98746.41;6337929;20;2742988;-64
2022/09/16 02:23:32;;;;;;;;;7.80;7.40;;;;;16.09;100.00;98752.19;6339927;20;2748610;-65
2022/09/16 02:26:05;;;;;;;;;8.50;8.50;;;;;16.10;100.00;98740.38;6320479;20;2740976;-66
2022/09/16 02:28:43;;;;;;;;;7.29;7.29;;;;;15.92;100.00;98743.91;6329122;20;3455611;-65
2022/09/16 02:31:13;;;;;;;;;8.40;8.40;;;;;15.93;100.00;98742.91;6336585;20;2779423;-66
2022/09/16 02:33:45;;;;;;;;;9.40;8.60;;;;;15.80;100.00;98745.13;6307110;20;2761719;-66
2022/09/16 02:36:20;;;;;;;;;13.00;10.00;;;;;15.84;100.00;98737.53;6282280;20;2791003;-66
2022/09/16 02:39:08;;;;;;;;;8.00;8.00;;;;;15.64;100.00;98734.94;6307281;20;2737763;-66
2022/09/16 02:41:40;;;;;;;;;12.20;10.00;;;;;15.57;100.00;98739.22;6336661;20;2789881;-66
2022/09/16 02:44:10;;;;;;;;;8.00;8.00;;;;;15.69;100.00;98743.47;6285715;20;2739907;-66
2022/09/16 02:46:57;;;;;;;;;10.80;10.80;;;;;15.67;100.00;98741.91;6299599;20;2786872;-66
2022/09/16 02:50:11;;;;;;;;;5.50;5.50;;;;;15.67;100.00;98742.75;6319242;20;2739959;-66
2022/09/16 02:53:01;;;;;;;;;7.60;6.20;;;;;15.71;100.00;98743.31;6334780;20;2746122;-65
2022/09/16 02:55:52;;;;;;;;;7.00;7.00;;;;;15.72;100.00;98748.59;6313378;20;2746276;-64
2022/09/16 02:58:20;;;;;;;;;8.00;8.00;;;;;15.77;100.00;98758.94;6286423;20;2737787;-66
2022/09/16 03:00:54;;;;;;;;;8.00;8.00;;;;;15.67;100.00;98760.84;6324092;20;3449219;-65
2022/09/16 03:03:25;;;;;;;;;7.71;7.71;;;;;15.77;100.00;98772.47;6355635;20;3461693;-66
2022/09/16 03:06:08;;;;;;;;;8.00;8.00;;;;;15.43;100.00;98774.84;6310873;20;2746098;-65
2022/09/16 03:08:37;;;;;;;;;9.00;7.50;;;;;15.64;100.00;98774.63;6288890;20;2732941;-64
2022/09/16 03:11:37;;;;;;;;;12.00;9.50;;;;;15.64;100.00;98783.63;6281942;20;2779600;-65
2022/09/16 03:14:36;;;;;;;;;9.00;9.00;;;;;15.67;100.00;98782.47;6286619;20;2746077;-64
2022/09/16 03:17:11;;;;;;;;;9.40;9.40;;;;;15.71;100.00;98789.31;6304285;20;2752326;-64
2022/09/16 03:19:56;;;;;;;;;8.40;7.00;;;;;15.80;100.00;98788.44;6310571;20;2750374;-64
2022/09/16 03:22:36;;;;;;;;;10.00;9.67;;;;;15.76;100.00;98787.00;6314286;20;2777515;-64
2022/09/16 03:25:52;;;;;;;;;11.00;11.00;;;;;15.73;100.00;98781.91;6311822;20;2785690;-64
2022/09/16 03:28:45;;;;;;;;;10.20;10.20;;;;;15.59;100.00;98786.78;6337507;20;2791958;-64
2022/09/16 03:31:33;;;;;;;;;11.33;11.33;;;;;15.62;100.00;98780.22;6278920;20;2792124;-64
2022/09/16 03:34:36;;;;;;;;;12.50;11.00;;;;;15.55;100.00;98779.94;6315657;20;2796163;-63
2022/09/16 03:37:10;;;;;;;;;13.00;12.67;;;;;15.53;100.00;98779.25;6277656;20;3513772;-63
2022/09/16 03:39:40;;;;;;;;;15.00;11.33;;;;;15.51;100.00;98775.84;6308092;20;3535822;-65
2022/09/16 03:42:10;;;;;;;;;12.80;11.60;;;;;15.47;100.00;98777.13;6336600;20;2793060;-64
2022/09/16 03:44:40;;;;;;;;;11.00;10.00;;;;;15.47;100.00;98771.72;6288515;20;2788936;-63
2022/09/16 03:47:09;;;;;;;;;12.00;10.33;;;;;15.67;100.00;98777.06;6281734;20;2789837;-63
2022/09/16 03:49:38;;;;;;;;;10.67;10.67;;;;;15.65;100.00;98781.78;6311186;20;2794117;-64
2022/09/16 03:52:07;;;;;;;;;11.00;11.00;;;;;15.67;100.00;98785.19;6317200;20;2794004;-64
2022/09/16 03:54:37;;;;;;;;;14.00;12.50;;;;;15.63;100.00;98781.06;6290077;20;2788796;-64
2022/09/16 03:57:06;;;;;;;;;10.00;10.00;;;;;15.73;100.00;98784.63;6286150;20;2789836;-64
2022/09/16 03:59:33;;;;;;;;;16.50;13.50;;;;;15.69;100.00;98785.91;6288028;20;2819032;-64
2022/09/16 04:02:02;;;;;;;;;11.67;11.33;;;;;15.61;100.00;98781.19;6279536;20;3514806;-65
2022/09/16 04:04:30;;;;;;;;;14.00;12.67;;;;;15.66;100.00;98784.31;6312533;20;3515922;-65
2022/09/16 04:06:58;;;;;;;;;12.00;12.00;;;;;15.68;100.00;98786.88;6314481;20;2791964;-64
2022/09/16 04:09:26;;;;;;;;;13.50;13.50;;;;;15.65;100.00;98779.06;6289254;20;2784650;-64
2022/09/16 04:11:54;;;;;;;;;13.33;10.33;;;;;15.54;100.00;98793.63;6282687;20;3513778;-64
2022/09/16 04:14:23;;;;;;;;;13.33;13.33;;;;;15.64;100.00;98799.00;6313562;20;3525667;-64
2022/09/16 04:16:51;;;;;;;;;15.00;15.00;;;;;15.58;100.00;98812.13;6281318;20;2820115;-64
2022/09/16 04:19:19;;;;;;;;;14.00;14.00;;;;;15.63;100.00;98818.94;6281217;20;3530592;-64
2022/09/16 04:21:48;;;;;;;;;18.33;17.00;;;;;15.66;100.00;98814.09;6308650;20;2833779;-64
2022/09/16 04:24:16;;;;;;;;;17.00;16.00;;;;;15.59;100.00;98819.25;6308374;20;2492007;-64
2022/09/16 04:26:44;;;;;;;;;16.00;14.00;;;;;15.66;100.00;98807.81;6283030;20;2812732;-64
2022/09/16 04:29:13;;;;;;;;;14.33;14.00;;;;;15.72;100.00;98818.09;6281377;20;3527314;-64
2022/09/16 04:31:42;;;;;;;;;16.00;15.67;;;;;15.74;100.00;98810.66;6308965;20;3549347;-64
2022/09/16 04:34:11;;;;;;;;;16.00;16.00;;;;;15.74;100.00;98816.06;6279249;20;3560700;-64
2022/09/16 04:36:40;;;;;;;;;12.67;12.67;;;;;15.87;100.00;98821.16;6279965;20;3509726;-64
2022/09/16 04:39:08;;;;;;;;;16.00;14.00;;;;;15.90;100.00;98816.28;6307687;20;2491928;-64
2022/09/16 04:41:37;;;;;;;;;20.00;16.33;;;;;15.73;100.00;98823.34;6279046;20;3573163;-63
2022/09/16 04:44:05;;;;;;;;;12.00;12.00;;;;;15.85;100.00;98828.56;6282242;20;2792063;-63
2022/09/16 04:46:33;;;;;;;;;16.00;16.00;;;;;15.84;100.00;98838.53;6275763;20;3562853;-63
2022/09/16 04:49:02;;;;;;;;;19.33;17.00;;;;;15.75;100.00;98843.00;6275497;20;2491936;-64
2022/09/16 04:51:31;;;;;;;;;16.33;16.33;;;;;15.76;100.00;98841.16;6305524;20;2825383;-63
2022/09/16 04:54:00;;;;;;;;;18.00;14.00;;;;;15.79;100.00;98835.44;6311170;20;2810798;-63
2022/09/16 04:56:32;;;;;;;;;19.00;17.50;;;;;15.81;100.00;98822.59;6277455;20;2834683;-64
2022/09/16 04:59:04;;;;;;;;;18.00;18.00;;;;;15.80;100.00;98815.50;6279117;20;2826324;-63
2022/09/16 05:01:37;;;;;;;;;17.00;17.00;;;;;15.83;100.00;98823.31;6268657;20;3565298;-64
2022/09/16 05:04:08;;;;;;;;;16.50;16.00;;;;;15.97;100.00;98828.22;6278257;20;2487780;-64
2022/09/16 05:06:40;;;;;;;;;18.00;17.50;;;;;15.80;100.00;98829.03;6273198;20;2500266;-64
2022/09/16 05:09:11;;;;;;;;;18.00;18.00;;;;;15.86;100.00;98836.56;6278727;20;2839844;-64
2022/09/16 05:11:41;;;;;;;;;26.00;19.00;;;;;15.85;100.00;98833.97;6305206;20;2487928;-64
2022/09/16 05:14:15;;;;;;;;;17.00;14.00;;;;;15.77;100.00;98829.31;6309242;20;2494124;-64
2022/09/16 05:16:45;;;;;;;;;16.00;16.00;;;;;15.78;100.00;98833.75;6272655;20;3543087;-64
2022/09/16 05:19:14;;;;;;;;;19.00;19.00;;;;;15.87;100.00;98830.13;6285091;20;2844169;-63
2022/09/16 05:21:43;;;;;;;;;18.00;16.67;;;;;16.04;100.00;98838.47;6309007;20;3571140;-64
2022/09/16 05:24:13;;;;;;;;;20.00;18.00;;;;;16.04;100.00;98838.47;6279234;20;2835841;-58
2022/09/16 05:26:43;;;;;;;;;17.67;17.67;;;;;16.04;99.75;98833.91;6278686;20;3567967;-58
2022/09/16 05:29:15;;;;;;;;;18.00;18.00;;;;;16.06;100.00;98837.31;6284618;20;2837834;-57
2022/09/16 05:31:48;;;;;;;;;15.33;15.33;;;;;15.97;100.00;98839.06;6285283;20;3552436;-57
2022/09/16 05:34:20;;;;;;;;;21.00;21.00;;;;;16.01;100.00;98845.91;6282701;20;2814344;-58
2022/09/16 05:36:52;;;;;;;;;18.00;17.00;;;;;16.16;99.45;98848.09;6278840;20;2483718;-55
2022/09/16 05:39:23;;;;;;;;;19.00;19.00;;;;;16.07;99.78;98849.00;6281743;20;2837876;-58
2022/09/16 05:41:58;;;;;;;;;23.50;22.00;;;;;16.08;99.76;98850.69;6284437;20;2837750;-51
2022/09/16 05:44:28;;;;;;;;;20.00;20.00;;;;;16.11;99.29;98859.38;6282014;20;2832563;-52
2022/09/16 05:46:57;;;;;;;;;17.50;16.50;;;;;16.02;98.97;98853.00;6277915;20;2828373;-58
2022/09/16 05:49:25;;;;;;;;;19.00;18.00;;;;;16.11;99.36;98847.69;6285406;20;2834662;-58
2022/09/16 05:51:54;;;;;;;;;18.67;18.67;;;;;16.01;100.00;98851.31;6284431;20;2500784;-58
2022/09/16 05:54:24;;;;;;;;;20.00;18.00;;;;;16.14;98.83;98852.78;6314180;20;2835735;-57
2022/09/16 05:56:52;;;;;;;;;20.50;20.50;;;;;16.08;99.49;98848.00;6286409;20;2844076;-58
2022/09/16 05:59:22;;;;;;;;;22.00;20.00;;;;;16.11;99.56;98840.41;6283226;20;2843024;-58
2022/09/16 06:01:51;;;;;;;;;22.33;20.00;;;;;15.99;99.94;98831.66;6289056;20;3570282;-58
2022/09/16 06:04:20;;;;;;;;;22.50;20.50;;;;;16.21;99.43;98834.94;6315338;20;2839948;-58
2022/09/16 06:06:49;;;;;;;;;20.50;19.50;;;;;16.18;99.68;98837.97;6282735;20;2835696;-58
2022/09/16 06:09:24;;;;;;;;;23.67;23.33;;;;;16.26;98.63;98826.38;6286585;20;2848618;-58
2022/09/16 06:11:53;;;;;;;;;27.00;24.00;;;;;16.31;97.66;98824.91;6319925;20;3588806;-56
2022/09/16 06:14:29;;;;;;;;;22.00;19.33;;;;;16.38;97.63;98830.59;6280140;20;2500247;-57
2022/09/16 06:16:58;;;;;;;;;18.67;18.67;;;;;16.41;96.90;98844.66;6319135;20;3561702;-58
2022/09/16 06:19:26;;;;;;;;;21.67;19.00;;;;;16.37;97.47;98845.13;6289140;20;3562807;-58
2022/09/16 06:21:55;;;;;;;;;20.00;19.00;;;;;16.46;96.88;98847.78;6317110;20;2841944;-54
2022/09/16 06:24:24;;;;;;;;;23.00;20.00;;;;;16.39;96.45;98852.09;6285892;20;2842049;-57
2022/09/16 06:26:53;;;;;;;;;19.00;19.00;;;;;16.53;95.54;98850.72;6285804;20;2822131;-58
2022/09/16 06:29:21;;;;;;;;;20.50;20.50;;;;;16.52;95.16;98856.31;6288881;20;2838006;-57
2022/09/16 06:31:50;;;;;;;;;19.50;19.50;;;;;16.40;95.63;98861.06;6288066;20;2835808;-57
2022/09/16 06:34:18;;;;;;;;;21.67;20.33;;;;;16.51;96.23;98863.59;6289258;20;3568063;-57
2022/09/16 06:36:47;;;;;;;;;22.00;19.33;;;;;16.68;94.56;98859.19;6318179;20;3571143;-57
2022/09/16 06:39:16;;;;;;;;;17.50;16.50;;;;;16.69;94.56;98866.28;6282839;20;2824196;-54
2022/09/16 06:41:45;;;;;;;;;20.50;20.00;;;;;16.66;93.72;98855.75;6287310;20;2837773;-57
2022/09/16 06:44:13;;;;;;;;;19.00;18.33;;;;;16.67;93.51;98858.34;6291243;20;3563767;-55
2022/09/16 06:46:43;;;;;;;;;22.00;22.00;;;;;16.69;92.23;98858.16;6283438;20;2831613;-55
2022/09/16 06:49:11;;;;;;;;;21.00;21.00;;;;;16.79;93.50;98853.56;6287677;20;2846159;-56
2022/09/16 06:51:40;;;;;;;;;19.50;19.50;;;;;16.66;92.55;98855.75;6286380;20;2836728;-58
2022/09/16 06:54:10;;;;;;;;;24.00;22.00;;;;;16.79;92.22;98852.72;6287919;20;2835672;-57
2022/09/16 06:56:40;;;;;;;;;19.00;17.00;;;;;16.80;91.02;98854.44;6284386;20;2725373;-57
2022/09/16 06:59:11;;;;;;;;;22.00;19.00;;;;;16.72;91.02;98849.75;6317101;20;2729438;-57
2022/09/16 07:01:43;;;;;;;;;21.50;21.50;;;;;16.79;90.68;98850.84;6314851;20;2832658;-55
2022/09/16 07:04:12;;;;;;;;;21.00;19.50;;;;;16.89;91.01;98862.47;6282372;20;2837844;-53
2022/09/16 07:06:41;;;;;;;;;23.00;20.00;;;;;16.81;91.89;98859.69;6281958;20;2841940;-56
2022/09/16 07:09:31;;;;;;;;;17.00;17.00;;;;;16.83;91.63;98865.81;6286707;20;2837766;-56
2022/09/16 07:12:01;;;;;;;;;23.00;18.00;;;;;16.64;92.81;98872.19;6285302;20;2837785;-56
2022/09/16 07:14:31;;;;;;;;;20.33;19.00;;;;;16.63;92.61;98878.59;6290074;20;3566986;-56
2022/09/16 07:17:01;;;;;;;;;20.50;20.00;;;;;16.76;93.26;98880.09;6282855;20;2846115;-54
2022/09/16 07:19:30;;;;;;;;;24.33;21.00;;;;;16.84;93.65;98880.22;6289655;20;3577602;-56
2022/09/16 07:21:58;;;;;;;;;23.00;21.00;;;;;16.73;93.82;98873.13;6283766;20;2500342;-56
2022/09/16 07:24:26;;;;;;;;;20.50;19.00;;;;;16.91;94.11;98870.47;6287150;20;2841915;-53
2022/09/16 07:26:55;;;;;;;;;23.67;20.00;;;;;17.11;94.12;98879.25;6284884;20;3587807;-59
2022/09/16 07:29:24;;;;;;;;;25.00;21.00;;;;;16.95;92.65;98881.84;6285798;20;2835901;-56
2022/09/16 07:31:53;;;;;;;;;20.00;18.50;;;;;17.12;91.81;98883.69;6286245;20;2844041;-52
2022/09/16 07:34:21;;;;;;;;;20.50;20.50;;;;;17.11;92.02;98877.44;6286829;20;2834669;-51
2022/09/16 07:36:50;;;;;;;;;26.00;22.50;;;;;17.20;91.92;98889.19;6281506;20;2842980;-51
2022/09/16 07:39:20;;;;;;;;;20.67;19.67;;;;;17.20;91.39;98894.63;6286832;20;3602365;-52
2022/09/16 07:41:48;;;;;;;;;22.00;20.00;;;;;17.34;91.05;98894.06;6282001;20;2838856;-54
2022/09/16 07:44:20;;;;;;;;;23.00;21.50;;;;;17.19;91.34;98884.75;6283465;20;2836928;-53
2022/09/16 07:46:49;;;;;;;;;23.50;22.00;;;;;17.49;91.90;98890.78;6283818;20;2835749;-49
2022/09/16 07:49:19;;;;;;;;;21.00;21.00;;;;;17.36;89.84;98893.06;6286265;20;2829402;-52
2022/09/16 07:51:48;;;;;;;;;21.50;20.00;;;;;17.51;90.08;98895.03;6284451;20;2839842;-53
2022/09/16 07:54:18;;;;;;;;;21.67;20.00;;;;;17.42;88.78;98892.41;6318632;20;3566877;-54
2022/09/16 07:56:47;;;;;;;;;17.00;17.00;;;;;17.49;89.49;98898.94;6282307;20;2839815;-56
2022/09/16 07:59:20;;;;;;;;;22.33;20.33;;;;;17.33;89.47;98899.66;6283749;20;2845117;-53
2022/09/16 08:01:49;;;;;;;;;22.33;20.00;;;;;17.60;89.69;98906.81;6321661;20;3561695;-53
2022/09/16 08:04:19;;;;;;;;;20.67;19.33;;;;;17.69;89.71;98902.28;6284143;20;3571562;-52
2022/09/16 08:06:48;;;;;;;;;22.00;18.00;;;;;17.93;88.07;98893.47;6282222;20;2839952;-55
2022/09/16 08:09:17;;;;;;;;;20.00;16.00;;;;;17.82;88.95;98896.47;6283165;20;2829411;-56
2022/09/16 08:12:09;;;;;;;;;20.00;18.50;;;;;17.71;89.28;98897.53;6282759;20;2835681;-57
2022/09/16 08:14:38;;;;;;;;;21.00;21.00;;;;;17.54;88.99;98907.44;6283225;20;2836459;-57
2022/09/16 08:17:07;;;;;;;;;25.00;22.50;;;;;17.72;89.97;98913.69;6286608;20;2835710;-57
2022/09/16 08:19:38;;;;;;;;;21.00;16.00;;;;;17.53;88.94;98913.88;6286057;20;2836832;-57
2022/09/16 08:22:06;;;;;;;;;18.50;18.50;;;;;17.47;87.77;98909.09;6283252;20;2826311;-54
2022/09/16 08:24:35;;;;;;;;;17.00;17.00;;;;;17.54;87.43;98902.03;6286078;20;2826306;-48
2022/09/16 08:27:04;;;;;;;;;16.50;16.50;;;;;17.60;87.70;98904.09;6284995;20;2831494;-56
2022/09/16 08:29:32;;;;;;;;;17.00;17.00;;;;;17.75;87.02;98907.94;6287013;20;2837811;-61
2022/09/16 08:32:01;;;;;;;;;20.00;18.00;;;;;17.61;87.61;98913.09;6285605;20;2844037;-60
2022/09/16 08:34:29;;;;;;;;;18.00;14.00;;;;;17.63;87.38;98909.19;6289436;20;2807550;-60
2022/09/16 08:36:57;;;;;;;;;18.50;18.50;;;;;17.73;87.40;98915.38;6281937;20;2832027;-52
2022/09/16 08:39:26;;;;;;;;;23.00;19.50;;;;;17.76;87.67;98917.78;6280767;20;2828477;-56
2022/09/16 08:42:30;;;;;;;;;19.50;19.50;;;;;17.69;87.62;98914.00;6285759;20;2830841;-55
2022/09/16 08:44:59;;;;;;;;;16.00;15.00;;;;;17.86;86.08;98914.16;6289841;20;3556528;-54
2022/09/16 08:47:45;;;;;;;;;18.00;16.50;;;;;17.92;85.14;98914.34;6316523;20;2827359;-56
2022/09/16 08:50:28;;;;;;;;;19.50;19.50;;;;;17.97;87.63;98919.31;6284396;20;2836739;-56
2022/09/16 08:53:00;;;;;;;;;17.50;17.50;;;;;18.12;86.83;98923.13;6282223;20;2823211;-57
2022/09/16 08:55:41;;;;;;;;;16.00;15.00;;;;;18.10;85.20;98921.59;6281457;20;2492427;-54
2022/09/16 08:58:24;;;;;;;;;20.00;16.50;;;;;18.14;84.49;98917.53;6280548;20;2839863;-56
2022/09/16 09:01:01;;;;;;;;;20.50;17.50;;;;;18.45;84.41;98914.28;6284116;20;2489920;-56
2022/09/16 09:03:42;;;;;;;;;16.00;16.00;;;;;18.25;83.31;98919.13;6281150;20;2822181;-46
2022/09/16 09:06:41;;;;;;;;;17.50;16.50;;;;;18.28;84.03;98916.94;6280813;20;2832535;-49
2022/09/16 09:09:44;;;;;;;;;15.33;14.33;;;;;18.56;82.92;98917.56;6278723;20;3523156;-49
2022/09/16 09:12:40;;;;;;;;;14.00;13.00;;;;;18.54;79.05;98906.00;6314129;20;2797348;-54
2022/09/16 09:15:56;;;;;;;;;10.00;10.00;;;;;18.55;78.73;98904.97;6286987;20;2779410;-52
2022/09/16 09:19:12;;;;;;;;;13.33;10.33;;;;;18.40;80.44;98912.03;6309415;20;3509624;-52
2022/09/16 09:22:22;;;;;;;;;12.00;12.00;;;;;18.23;79.44;98913.00;6311839;20;3516931;-57
2022/09/16 09:25:43;;;;;;;;;12.00;12.00;;;;;18.40;79.26;98914.75;6277270;20;2790966;-57
2022/09/16 09:28:42;;;;;;;;;11.00;11.00;;;;;18.43;80.81;98925.31;6315613;20;3520039;-53
2022/09/16 09:31:29;;;;;;;;;15.67;12.33;;;;;17.98;81.01;98921.88;6309176;20;3553502;-52
2022/09/16 09:34:43;;;;;;;;;12.00;12.00;;;;;18.35;81.12;98936.13;6282154;20;3514924;-49
2022/09/16 09:37:47;;;;;;;;;16.00;13.67;;;;;18.31;80.29;98927.47;6309573;20;2786835;-59
2022/09/16 09:40:48;;;;;;;;;12.67;12.33;;;;;18.30;81.34;98933.94;6309683;20;3515384;-59
2022/09/16 09:43:34;;;;;;;;;11.00;11.00;;;;;18.20;81.98;98923.16;6314681;20;2795101;-59
2022/09/16 09:46:11;;;;;;;;;14.67;13.33;;;;;18.21;81.92;98927.59;6277144;20;3519029;-59
2022/09/16 09:49:12;;;;;;;;;11.00;11.00;;;;;18.31;82.25;98922.03;6309267;20;3517994;-60
2022/09/16 09:51:50;;;;;;;;;10.00;10.00;;;;;18.51;81.38;98908.16;6312881;20;3516901;-60
2022/09/16 09:54:25;;;;;;;;;11.00;11.00;;;;;18.40;80.81;98912.03;6312186;20;3509607;-57
2022/09/16 09:57:11;;;;;;;;;13.00;11.33;;;;;18.57;79.51;98907.53;6310518;20;3518027;-58
2022/09/16 10:00:11;;;;;;;;;10.00;10.00;;;;;18.75;78.95;98905.59;6308884;20;3507513;-59
2022/09/16 10:02:44;;;;;;;;;12.33;11.00;;;;;18.75;78.30;98921.06;6312293;20;2794098;-59
2022/09/16 10:05:27;;;;;;;;;14.50;14.50;;;;;18.78;78.93;98913.41;6310968;20;2799212;-58
2022/09/16 10:08:09;;;;;;;;;11.00;11.00;;;;;18.59;79.14;98928.09;6285460;20;2789936;-59
2022/09/16 10:10:59;;;;;;;;;14.33;14.33;;;;;18.68;81.85;98919.97;6312266;20;3522309;-59
2022/09/16 10:13:30;;;;;;;;;14.67;13.00;;;;;18.37;80.97;98918.66;6308833;20;3531485;-59
2022/09/16 10:16:20;;;;;;;;;10.50;10.50;;;;;18.28;81.43;98924.22;6322152;20;2789851;-59
2022/09/16 10:19:07;;;;;;;;;13.50;13.50;;;;;18.47;83.09;98920.41;6291076;20;2786832;-59
2022/09/16 10:21:54;;;;;;;;;10.00;9.33;;;;;18.75;81.62;98910.19;6285796;20;3498198;-59
2022/09/16 10:24:35;;;;;;;;;10.00;10.00;;;;;19.00;81.51;98902.91;6316875;20;2780588;-60
2022/09/16 10:27:37;;;;;;;;;14.33;12.00;;;;;18.83;79.29;98908.31;6316582;20;2804554;-60
2022/09/16 10:30:20;;;;;;;;;12.00;10.00;;;;;18.88;79.28;98909.66;6316152;20;2790918;-58
2022/09/16 10:33:29;;;;;;;;;11.00;10.33;;;;;19.24;79.07;98910.25;6286317;20;3512739;-57
2022/09/16 10:36:09;;;;;;;;;10.33;10.33;;;;;19.00;78.61;98903.75;6312313;20;3509582;-58
2022/09/16 10:38:54;;;;;;;;;11.50;11.50;;;;;18.89;78.30;98895.06;6312759;20;2491997;-58
2022/09/16 10:41:39;;;;;;;;;12.33;10.67;;;;;18.88;78.12;98905.09;6282673;20;3519018;-59
2022/09/16 10:44:38;;;;;;;;;13.67;12.33;;;;;18.69;78.42;98910.78;6320282;20;2800299;-57
2022/09/16 10:47:26;;;;;;;;;12.00;10.67;;;;;18.48;78.00;98898.47;6313821;20;3513951;-55
2022/09/16 10:50:04;;;;;;;;;14.33;13.00;;;;;18.78;79.29;98896.25;6308526;20;3536801;-51
2022/09/16 10:52:44;;;;;;;;;11.33;11.33;;;;;18.63;79.08;98891.41;6321183;20;2788901;-53
2022/09/16 10:55:37;;;;;;;;;14.67;11.00;;;;;18.49;80.37;98893.91;6313117;20;2800499;-51
2022/09/16 10:58:17;;;;;;;;;11.00;11.00;;;;;18.46;79.70;98895.09;6314201;20;3513837;-52
2022/09/16 11:01:28;;;;;;;;;11.00;9.33;;;;;18.40;78.90;98895.72;6316558;20;3498336;-54
2022/09/16 11:04:56;;;;;;;;;12.00;11.00;;;;;18.53;78.81;98893.41;6317191;20;2792444;-52
2022/09/16 11:08:12;;;;;;;;;10.50;10.50;;;;;18.40;79.37;98888.47;6281620;20;2792087;-51
2022/09/16 11:11:16;;;;;;;;;16.50;16.50;;;;;18.46;79.16;98897.81;6287113;20;2829444;-53
2022/09/16 11:13:53;;;;;;;;;8.50;8.50;;;;;18.35;79.59;98903.53;6290734;20;2744087;-56
2022/09/16 11:16:55;;;;;;;;;10.00;10.00;;;;;18.22;78.28;98904.00;6291733;20;2785669;-52
2022/09/16 11:20:03;;;;;;;;;9.00;9.00;;;;;18.25;80.05;98897.41;6283003;20;2762914;-54
2022/09/16 11:23:29;;;;;;;;;11.00;11.00;;;;;18.45;79.26;98896.09;6317741;20;2785699;-51
2022/09/16 11:27:14;;;;;;;;;10.00;10.00;;;;;18.45;78.18;98895.25;6273341;20;3500258;-52
2022/09/16 11:30:06;;;;;;;;;10.00;10.00;;;;;18.31;77.86;98903.00;6308173;20;2796213;-49
2022/09/16 11:33:03;;;;;;;;;13.00;10.00;;;;;18.25;79.73;98905.53;6308351;20;3514917;-49
2022/09/16 11:36:00;;;;;;;;;10.50;9.00;;;;;18.15;78.63;98903.78;6318279;20;2767955;-50
2022/09/16 11:39:04;;;;;;;;;12.00;12.00;;;;;18.32;79.10;98892.97;6280966;20;2787975;-55
2022/09/16 11:42:01;;;;;;;;;14.00;10.00;;;;;18.23;78.50;98889.38;6316630;20;2791949;-52
2022/09/16 11:45:07;;;;;;;;;13.33;11.00;;;;;18.48;78.77;98889.47;6310217;20;2789945;-48
2022/09/16 11:48:18;;;;;;;;;10.33;10.00;;;;;18.68;77.28;98892.78;6308017;20;3511852;-50
2022/09/16 11:51:41;;;;;;;;;9.40;9.40;;;;;18.61;75.45;98881.69;6341222;20;2775444;-51
2022/09/16 11:54:54;;;;;;;;;12.00;11.00;;;;;18.77;76.12;98883.63;6284984;20;2793115;-49
2022/09/16 11:57:30;;;;;;;;;8.67;8.67;;;;;18.91;74.60;98880.28;6279869;20;2752351;-51
2022/09/16 12:00:15;;;;;;;;;11.00;9.67;;;;;18.81;73.32;98877.72;6310028;20;2784644;-50